sensor_id;sensor_type;location;lat;lon;timestamp;P1;durP1;ratioP1;P2;durP2;ratioP2
20040;SDS011;10181;48.072;9.884;2023-04-10T00:00:04;16.57;;;15.53;;
20040;SDS011;10181;48.072;9.884;2023-04-10T00:02:30;18.87;;;17.67;;
20040;SDS011;10181;48.072;9.884;2023-04-10T00:04:56;20.67;;;19.47;;
20040;SDS011;10181;48.072;9.884;2023-04-10T00:07:23;22.17;;;20.77;;
20040;SDS011;10181;48.072;9.884;2023-04-10T00:09:48;25.17;;;23.80;;
20040;SDS011;10181;48.072;9.884;2023-04-10T00:12:14;25.93;;;24.43;;
20040;SDS011;10181;48.072;9.884;2023-04-10T00:14:40;26.93;;;25.47;;
20040;SDS011;10181;48.072;9.884;2023-04-10T00:17:06;27.87;;;26.37;;
20040;SDS011;10181;48.072;9.884;2023-04-10T00:19:32;30.07;;;28.43;;
20040;SDS011;10181;48.072;9.884;2023-04-10T00:21:57;29.33;;;27.63;;
20040;SDS011;10181;48.072;9.884;2023-04-10T00:24:23;29.73;;;28.17;;
20040;SDS011;10181;48.072;9.884;2023-04-10T00:26:49;28.33;;;26.90;;
20040;SDS011;10181;48.072;9.884;2023-04-10T00:29:14;28.63;;;27.13;;
20040;SDS011;10181;48.072;9.884;2023-04-10T00:31:40;29.20;;;27.60;;
20040;SDS011;10181;48.072;9.884;2023-04-10T00:34:06;28.20;;;26.67;;
20040;SDS011;10181;48.072;9.884;2023-04-10T00:36:32;25.37;;;23.90;;
20040;SDS011;10181;48.072;9.884;2023-04-10T00:38:58;22.00;;;20.70;;
20040;SDS011;10181;48.072;9.884;2023-04-10T00:41:24;21.53;;;20.17;;
20040;SDS011;10181;48.072;9.884;2023-04-10T00:43:54;17.20;;;16.20;;
20040;SDS011;10181;48.072;9.884;2023-04-10T00:46:21;18.97;;;17.83;;
20040;SDS011;10181;48.072;9.884;2023-04-10T00:48:47;15.63;;;14.63;;
20040;SDS011;10181;48.072;9.884;2023-04-10T00:51:14;13.33;;;12.37;;
20040;SDS011;10181;48.072;9.884;2023-04-10T00:53:40;13.63;;;12.87;;
20040;SDS011;10181;48.072;9.884;2023-04-10T00:56:05;13.37;;;12.50;;
20040;SDS011;10181;48.072;9.884;2023-04-10T00:58:32;11.60;;;10.80;;
20040;SDS011;10181;48.072;9.884;2023-04-10T01:00:57;10.40;;;9.67;;
20040;SDS011;10181;48.072;9.884;2023-04-10T01:03:23;10.03;;;9.20;;
20040;SDS011;10181;48.072;9.884;2023-04-10T01:06:07;10.00;;;9.10;;
20040;SDS011;10181;48.072;9.884;2023-04-10T01:08:48;6.47;;;5.97;;
20040;SDS011;10181;48.072;9.884;2023-04-10T01:14:32;6.37;;;5.87;;
20040;SDS011;10181;48.072;9.884;2023-04-10T01:22:24;7.03;;;6.33;;
20040;SDS011;10181;48.072;9.884;2023-04-10T01:27:51;6.13;;;5.57;;
20040;SDS011;10181;48.072;9.884;2023-04-10T01:30:36;5.90;;;5.40;;
20040;SDS011;10181;48.072;9.884;2023-04-10T01:33:02;6.80;;;6.17;;
20040;SDS011;10181;48.072;9.884;2023-04-10T01:35:33;6.33;;;5.83;;
20040;SDS011;10181;48.072;9.884;2023-04-10T01:38:00;5.80;;;5.23;;
20040;SDS011;10181;48.072;9.884;2023-04-10T01:40:28;6.07;;;5.47;;
20040;SDS011;10181;48.072;9.884;2023-04-10T01:42:56;5.47;;;4.97;;
20040;SDS011;10181;48.072;9.884;2023-04-10T01:45:27;6.67;;;6.00;;
20040;SDS011;10181;48.072;9.884;2023-04-10T01:47:53;5.40;;;4.90;;
20040;SDS011;10181;48.072;9.884;2023-04-10T01:50:20;6.50;;;5.90;;
20040;SDS011;10181;48.072;9.884;2023-04-10T01:52:49;6.93;;;6.30;;
20040;SDS011;10181;48.072;9.884;2023-04-10T01:55:16;6.50;;;5.63;;
20040;SDS011;10181;48.072;9.884;2023-04-10T01:57:44;6.70;;;6.07;;
20040;SDS011;10181;48.072;9.884;2023-04-10T02:00:12;6.80;;;6.13;;
20040;SDS011;10181;48.072;9.884;2023-04-10T02:02:40;6.40;;;5.80;;
20040;SDS011;10181;48.072;9.884;2023-04-10T02:05:06;5.43;;;4.93;;
20040;SDS011;10181;48.072;9.884;2023-04-10T02:10:18;5.47;;;4.97;;
20040;SDS011;10181;48.072;9.884;2023-04-10T02:13:14;5.73;;;5.00;;
20040;SDS011;10181;48.072;9.884;2023-04-10T02:15:41;6.17;;;5.37;;
20040;SDS011;10181;48.072;9.884;2023-04-10T02:18:07;6.63;;;6.03;;
20040;SDS011;10181;48.072;9.884;2023-04-10T02:20:35;5.67;;;5.17;;
20040;SDS011;10181;48.072;9.884;2023-04-10T02:23:01;6.67;;;6.07;;
20040;SDS011;10181;48.072;9.884;2023-04-10T02:25:33;5.83;;;5.43;;
20040;SDS011;10181;48.072;9.884;2023-04-10T02:28:06;7.00;;;6.40;;
20040;SDS011;10181;48.072;9.884;2023-04-10T02:30:32;6.77;;;6.23;;
20040;SDS011;10181;48.072;9.884;2023-04-10T02:32:58;7.70;;;7.00;;
20040;SDS011;10181;48.072;9.884;2023-04-10T02:35:24;7.80;;;7.30;;
20040;SDS011;10181;48.072;9.884;2023-04-10T02:37:51;7.83;;;7.13;;
20040;SDS011;10181;48.072;9.884;2023-04-10T02:40:16;7.47;;;6.97;;
20040;SDS011;10181;48.072;9.884;2023-04-10T02:42:42;6.80;;;6.30;;
20040;SDS011;10181;48.072;9.884;2023-04-10T02:45:08;7.67;;;7.03;;
20040;SDS011;10181;48.072;9.884;2023-04-10T02:47:34;7.67;;;7.07;;
20040;SDS011;10181;48.072;9.884;2023-04-10T02:50:00;7.70;;;7.10;;
20040;SDS011;10181;48.072;9.884;2023-04-10T02:52:25;8.30;;;7.70;;
20040;SDS011;10181;48.072;9.884;2023-04-10T02:54:51;7.57;;;6.87;;
20040;SDS011;10181;48.072;9.884;2023-04-10T02:57:17;7.63;;;7.03;;
20040;SDS011;10181;48.072;9.884;2023-04-10T02:59:43;7.57;;;6.97;;
20040;SDS011;10181;48.072;9.884;2023-04-10T03:02:08;8.13;;;6.97;;
20040;SDS011;10181;48.072;9.884;2023-04-10T03:04:34;6.20;;;5.77;;
20040;SDS011;10181;48.072;9.884;2023-04-10T03:07:00;6.47;;;5.77;;
20040;SDS011;10181;48.072;9.884;2023-04-10T03:09:25;6.00;;;5.47;;
20040;SDS011;10181;48.072;9.884;2023-04-10T03:11:51;5.57;;;5.07;;
20040;SDS011;10181;48.072;9.884;2023-04-10T03:14:16;6.17;;;5.67;;
20040;SDS011;10181;48.072;9.884;2023-04-10T03:16:42;6.20;;;5.70;;
20040;SDS011;10181;48.072;9.884;2023-04-10T03:19:08;7.23;;;6.53;;
20040;SDS011;10181;48.072;9.884;2023-04-10T03:21:33;7.53;;;6.53;;
20040;SDS011;10181;48.072;9.884;2023-04-10T03:23:59;7.00;;;6.40;;
20040;SDS011;10181;48.072;9.884;2023-04-10T03:26:25;7.00;;;6.47;;
20040;SDS011;10181;48.072;9.884;2023-04-10T03:28:51;8.37;;;7.60;;
20040;SDS011;10181;48.072;9.884;2023-04-10T03:31:17;9.23;;;8.53;;
20040;SDS011;10181;48.072;9.884;2023-04-10T03:33:43;9.27;;;8.60;;
20040;SDS011;10181;48.072;9.884;2023-04-10T03:36:08;8.93;;;8.23;;
20040;SDS011;10181;48.072;9.884;2023-04-10T03:38:35;9.07;;;8.47;;
20040;SDS011;10181;48.072;9.884;2023-04-10T03:41:00;9.20;;;8.23;;
20040;SDS011;10181;48.072;9.884;2023-04-10T03:43:26;8.93;;;8.27;;
20040;SDS011;10181;48.072;9.884;2023-04-10T03:45:53;8.57;;;7.97;;
20040;SDS011;10181;48.072;9.884;2023-04-10T03:48:19;6.70;;;6.20;;
20040;SDS011;10181;48.072;9.884;2023-04-10T03:50:45;8.73;;;8.03;;
20040;SDS011;10181;48.072;9.884;2023-04-10T03:53:10;9.43;;;8.67;;
20040;SDS011;10181;48.072;9.884;2023-04-10T03:55:36;9.13;;;8.43;;
20040;SDS011;10181;48.072;9.884;2023-04-10T03:58:02;7.73;;;7.23;;
20040;SDS011;10181;48.072;9.884;2023-04-10T04:00:28;8.93;;;8.20;;
20040;SDS011;10181;48.072;9.884;2023-04-10T04:02:54;7.83;;;7.33;;
20040;SDS011;10181;48.072;9.884;2023-04-10T04:05:20;7.30;;;6.70;;
20040;SDS011;10181;48.072;9.884;2023-04-10T04:07:46;7.10;;;6.57;;
20040;SDS011;10181;48.072;9.884;2023-04-10T04:10:12;7.53;;;6.93;;
20040;SDS011;10181;48.072;9.884;2023-04-10T04:12:37;6.63;;;6.20;;
20040;SDS011;10181;48.072;9.884;2023-04-10T04:15:03;7.07;;;6.37;;
20040;SDS011;10181;48.072;9.884;2023-04-10T04:17:29;6.70;;;6.23;;
20040;SDS011;10181;48.072;9.884;2023-04-10T04:19:54;7.07;;;6.47;;
20040;SDS011;10181;48.072;9.884;2023-04-10T04:22:20;7.70;;;6.93;;
20040;SDS011;10181;48.072;9.884;2023-04-10T04:24:46;7.17;;;6.57;;
20040;SDS011;10181;48.072;9.884;2023-04-10T04:27:11;7.53;;;6.90;;
20040;SDS011;10181;48.072;9.884;2023-04-10T04:29:37;7.40;;;6.80;;
20040;SDS011;10181;48.072;9.884;2023-04-10T04:32:02;6.83;;;6.30;;
20040;SDS011;10181;48.072;9.884;2023-04-10T04:34:28;7.97;;;7.40;;
20040;SDS011;10181;48.072;9.884;2023-04-10T04:36:54;7.37;;;6.87;;
20040;SDS011;10181;48.072;9.884;2023-04-10T04:39:19;7.87;;;7.37;;
20040;SDS011;10181;48.072;9.884;2023-04-10T04:41:47;8.63;;;8.07;;
20040;SDS011;10181;48.072;9.884;2023-04-10T04:44:12;9.30;;;8.60;;
20040;SDS011;10181;48.072;9.884;2023-04-10T04:46:38;10.47;;;9.77;;
20040;SDS011;10181;48.072;9.884;2023-04-10T04:49:04;11.83;;;11.03;;
20040;SDS011;10181;48.072;9.884;2023-04-10T04:51:29;10.30;;;9.53;;
20040;SDS011;10181;48.072;9.884;2023-04-10T04:53:55;10.43;;;9.73;;
20040;SDS011;10181;48.072;9.884;2023-04-10T04:56:21;12.63;;;11.93;;
20040;SDS011;10181;48.072;9.884;2023-04-10T04:58:46;13.30;;;12.50;;
20040;SDS011;10181;48.072;9.884;2023-04-10T05:01:12;12.27;;;11.63;;
20040;SDS011;10181;48.072;9.884;2023-04-10T05:03:37;9.77;;;8.97;;
20040;SDS011;10181;48.072;9.884;2023-04-10T05:06:03;12.43;;;11.43;;
20040;SDS011;10181;48.072;9.884;2023-04-10T05:08:29;12.37;;;11.57;;
20040;SDS011;10181;48.072;9.884;2023-04-10T05:10:54;11.23;;;10.43;;
20040;SDS011;10181;48.072;9.884;2023-04-10T05:13:20;13.93;;;12.83;;
20040;SDS011;10181;48.072;9.884;2023-04-10T05:15:45;11.80;;;10.93;;
20040;SDS011;10181;48.072;9.884;2023-04-10T05:18:12;12.97;;;11.77;;
20040;SDS011;10181;48.072;9.884;2023-04-10T05:20:38;14.27;;;13.03;;
20040;SDS011;10181;48.072;9.884;2023-04-10T05:23:04;11.90;;;11.17;;
20040;SDS011;10181;48.072;9.884;2023-04-10T05:25:30;13.70;;;12.90;;
20040;SDS011;10181;48.072;9.884;2023-04-10T05:27:56;16.20;;;14.90;;
20040;SDS011;10181;48.072;9.884;2023-04-10T05:30:22;19.23;;;17.30;;
20040;SDS011;10181;48.072;9.884;2023-04-10T05:32:48;19.23;;;17.20;;
20040;SDS011;10181;48.072;9.884;2023-04-10T05:35:14;19.03;;;17.30;;
20040;SDS011;10181;48.072;9.884;2023-04-10T05:37:40;16.17;;;14.57;;
20040;SDS011;10181;48.072;9.884;2023-04-10T05:40:05;15.57;;;14.03;;
20040;SDS011;10181;48.072;9.884;2023-04-10T05:42:32;16.57;;;15.13;;
20040;SDS011;10181;48.072;9.884;2023-04-10T05:44:57;14.00;;;12.60;;
20040;SDS011;10181;48.072;9.884;2023-04-10T05:47:23;10.97;;;9.90;;
20040;SDS011;10181;48.072;9.884;2023-04-10T05:49:48;11.03;;;9.93;;
20040;SDS011;10181;48.072;9.884;2023-04-10T05:52:14;9.70;;;8.73;;
20040;SDS011;10181;48.072;9.884;2023-04-10T05:54:39;9.37;;;8.33;;
20040;SDS011;10181;48.072;9.884;2023-04-10T05:57:05;9.27;;;7.57;;
20040;SDS011;10181;48.072;9.884;2023-04-10T05:59:31;8.10;;;7.00;;
20040;SDS011;10181;48.072;9.884;2023-04-10T06:01:56;8.63;;;7.33;;
20040;SDS011;10181;48.072;9.884;2023-04-10T06:04:22;9.20;;;8.30;;
20040;SDS011;10181;48.072;9.884;2023-04-10T06:06:47;8.23;;;7.43;;
20040;SDS011;10181;48.072;9.884;2023-04-10T06:09:13;11.23;;;10.20;;
20040;SDS011;10181;48.072;9.884;2023-04-10T06:11:39;11.13;;;10.23;;
20040;SDS011;10181;48.072;9.884;2023-04-10T06:14:05;13.47;;;12.37;;
20040;SDS011;10181;48.072;9.884;2023-04-10T06:16:31;12.60;;;11.53;;
20040;SDS011;10181;48.072;9.884;2023-04-10T06:18:56;11.90;;;10.73;;
20040;SDS011;10181;48.072;9.884;2023-04-10T06:21:22;10.33;;;8.57;;
20040;SDS011;10181;48.072;9.884;2023-04-10T06:23:48;7.77;;;7.07;;
20040;SDS011;10181;48.072;9.884;2023-04-10T06:26:13;8.33;;;7.33;;
20040;SDS011;10181;48.072;9.884;2023-04-10T06:28:39;6.77;;;6.23;;
20040;SDS011;10181;48.072;9.884;2023-04-10T06:31:06;6.90;;;6.30;;
20040;SDS011;10181;48.072;9.884;2023-04-10T06:33:31;8.60;;;7.90;;
20040;SDS011;10181;48.072;9.884;2023-04-10T06:35:59;9.13;;;8.33;;
20040;SDS011;10181;48.072;9.884;2023-04-10T06:38:25;10.23;;;9.53;;
20040;SDS011;10181;48.072;9.884;2023-04-10T06:40:51;10.27;;;9.37;;
20040;SDS011;10181;48.072;9.884;2023-04-10T06:43:16;13.30;;;12.40;;
20040;SDS011;10181;48.072;9.884;2023-04-10T06:45:42;11.93;;;10.93;;
20040;SDS011;10181;48.072;9.884;2023-04-10T06:48:08;12.77;;;11.90;;
20040;SDS011;10181;48.072;9.884;2023-04-10T06:50:33;12.20;;;11.13;;
20040;SDS011;10181;48.072;9.884;2023-04-10T06:52:59;10.43;;;9.70;;
20040;SDS011;10181;48.072;9.884;2023-04-10T06:55:25;8.90;;;8.10;;
20040;SDS011;10181;48.072;9.884;2023-04-10T06:57:51;7.50;;;6.67;;
20040;SDS011;10181;48.072;9.884;2023-04-10T07:00:17;8.70;;;8.00;;
20040;SDS011;10181;48.072;9.884;2023-04-10T07:02:43;6.00;;;5.33;;
20040;SDS011;10181;48.072;9.884;2023-04-10T07:05:10;6.00;;;5.33;;
20040;SDS011;10181;48.072;9.884;2023-04-10T07:07:35;7.37;;;4.97;;
20040;SDS011;10181;48.072;9.884;2023-04-10T07:10:01;6.07;;;5.57;;
20040;SDS011;10181;48.072;9.884;2023-04-10T07:12:27;6.03;;;5.60;;
20040;SDS011;10181;48.072;9.884;2023-04-10T07:14:53;6.70;;;6.13;;
20040;SDS011;10181;48.072;9.884;2023-04-10T07:17:19;7.90;;;7.40;;
20040;SDS011;10181;48.072;9.884;2023-04-10T07:19:45;9.17;;;8.47;;
20040;SDS011;10181;48.072;9.884;2023-04-10T07:22:11;15.63;;;14.67;;
20040;SDS011;10181;48.072;9.884;2023-04-10T07:24:37;21.77;;;20.60;;
20040;SDS011;10181;48.072;9.884;2023-04-10T07:27:02;32.47;;;31.03;;
20040;SDS011;10181;48.072;9.884;2023-04-10T07:29:28;41.23;;;39.27;;
20040;SDS011;10181;48.072;9.884;2023-04-10T07:31:54;40.50;;;38.43;;
20040;SDS011;10181;48.072;9.884;2023-04-10T07:34:20;36.13;;;34.33;;
20040;SDS011;10181;48.072;9.884;2023-04-10T07:36:45;26.43;;;25.23;;
20040;SDS011;10181;48.072;9.884;2023-04-10T07:39:12;19.37;;;18.37;;
20040;SDS011;10181;48.072;9.884;2023-04-10T07:41:37;11.57;;;11.03;;
20040;SDS011;10181;48.072;9.884;2023-04-10T07:44:04;10.97;;;10.30;;
20040;SDS011;10181;48.072;9.884;2023-04-10T07:46:29;12.47;;;11.70;;
20040;SDS011;10181;48.072;9.884;2023-04-10T07:48:55;11.87;;;11.07;;
20040;SDS011;10181;48.072;9.884;2023-04-10T07:51:21;10.77;;;10.20;;
20040;SDS011;10181;48.072;9.884;2023-04-10T07:53:47;11.83;;;11.13;;
20040;SDS011;10181;48.072;9.884;2023-04-10T07:56:16;11.17;;;10.50;;
20040;SDS011;10181;48.072;9.884;2023-04-10T07:58:43;10.17;;;9.57;;
20040;SDS011;10181;48.072;9.884;2023-04-10T08:01:09;10.97;;;10.47;;
20040;SDS011;10181;48.072;9.884;2023-04-10T08:03:38;11.97;;;11.37;;
20040;SDS011;10181;48.072;9.884;2023-04-10T08:06:05;12.53;;;11.93;;
20040;SDS011;10181;48.072;9.884;2023-04-10T08:08:34;12.20;;;11.57;;
20040;SDS011;10181;48.072;9.884;2023-04-10T08:11:07;12.60;;;11.80;;
20040;SDS011;10181;48.072;9.884;2023-04-10T08:13:48;8.57;;;8.10;;
20040;SDS011;10181;48.072;9.884;2023-04-10T08:16:15;8.10;;;7.60;;
20040;SDS011;10181;48.072;9.884;2023-04-10T08:18:42;7.77;;;7.33;;
20040;SDS011;10181;48.072;9.884;2023-04-10T08:21:08;8.13;;;7.63;;
20040;SDS011;10181;48.072;9.884;2023-04-10T08:23:33;16.73;;;15.83;;
20040;SDS011;10181;48.072;9.884;2023-04-10T08:25:59;12.60;;;12.00;;
20040;SDS011;10181;48.072;9.884;2023-04-10T08:28:24;13.93;;;13.33;;
20040;SDS011;10181;48.072;9.884;2023-04-10T08:30:52;11.90;;;11.40;;
20040;SDS011;10181;48.072;9.884;2023-04-10T08:33:17;12.17;;;11.67;;
20040;SDS011;10181;48.072;9.884;2023-04-10T08:35:46;4.30;;;4.10;;
20040;SDS011;10181;48.072;9.884;2023-04-10T08:38:12;5.77;;;5.37;;
20040;SDS011;10181;48.072;9.884;2023-04-10T08:40:38;4.93;;;4.63;;
20040;SDS011;10181;48.072;9.884;2023-04-10T08:43:04;4.93;;;4.63;;
20040;SDS011;10181;48.072;9.884;2023-04-10T08:45:30;4.63;;;4.33;;
20040;SDS011;10181;48.072;9.884;2023-04-10T08:47:56;5.77;;;5.37;;
20040;SDS011;10181;48.072;9.884;2023-04-10T08:50:25;4.73;;;4.43;;
20040;SDS011;10181;48.072;9.884;2023-04-10T08:52:53;2.93;;;2.73;;
20040;SDS011;10181;48.072;9.884;2023-04-10T08:55:20;4.70;;;4.40;;
20040;SDS011;10181;48.072;9.884;2023-04-10T08:57:46;24.40;;;23.23;;
20040;SDS011;10181;48.072;9.884;2023-04-10T09:00:12;3.37;;;3.17;;
20040;SDS011;10181;48.072;9.884;2023-04-10T09:02:38;3.83;;;3.53;;
20040;SDS011;10181;48.072;9.884;2023-04-10T09:05:05;4.40;;;4.10;;
20040;SDS011;10181;48.072;9.884;2023-04-10T09:07:35;5.33;;;4.90;;
20040;SDS011;10181;48.072;9.884;2023-04-10T09:10:00;6.07;;;5.67;;
20040;SDS011;10181;48.072;9.884;2023-04-10T09:12:26;7.20;;;6.87;;
20040;SDS011;10181;48.072;9.884;2023-04-10T09:14:51;24.50;;;23.57;;
20040;SDS011;10181;48.072;9.884;2023-04-10T09:17:23;15.00;;;14.40;;
20040;SDS011;10181;48.072;9.884;2023-04-10T09:19:53;14.03;;;13.33;;
20040;SDS011;10181;48.072;9.884;2023-04-10T09:22:29;11.30;;;10.80;;
20040;SDS011;10181;48.072;9.884;2023-04-10T09:24:59;26.43;;;25.33;;
20040;SDS011;10181;48.072;9.884;2023-04-10T09:27:35;12.00;;;11.40;;
20040;SDS011;10181;48.072;9.884;2023-04-10T09:30:03;42.20;;;40.40;;
20040;SDS011;10181;48.072;9.884;2023-04-10T09:32:40;53.87;;;51.57;;
20040;SDS011;10181;48.072;9.884;2023-04-10T09:35:08;16.50;;;15.80;;
20040;SDS011;10181;48.072;9.884;2023-04-10T09:37:34;32.53;;;31.17;;
20040;SDS011;10181;48.072;9.884;2023-04-10T09:40:00;40.30;;;38.60;;
20040;SDS011;10181;48.072;9.884;2023-04-10T09:42:34;36.30;;;34.70;;
20040;SDS011;10181;48.072;9.884;2023-04-10T09:45:04;36.53;;;35.03;;
20040;SDS011;10181;48.072;9.884;2023-04-10T09:47:30;32.63;;;31.33;;
20040;SDS011;10181;48.072;9.884;2023-04-10T09:49:57;26.37;;;25.27;;
20040;SDS011;10181;48.072;9.884;2023-04-10T09:52:27;56.23;;;53.93;;
20040;SDS011;10181;48.072;9.884;2023-04-10T09:55:04;61.60;;;59.10;;
20040;SDS011;10181;48.072;9.884;2023-04-10T09:57:32;39.97;;;38.23;;
20040;SDS011;10181;48.072;9.884;2023-04-10T10:00:00;69.17;;;66.27;;
20040;SDS011;10181;48.072;9.884;2023-04-10T10:02:29;53.10;;;50.83;;
20040;SDS011;10181;48.072;9.884;2023-04-10T10:04:58;17.13;;;16.43;;
20040;SDS011;10181;48.072;9.884;2023-04-10T10:07:24;14.53;;;13.93;;
20040;SDS011;10181;48.072;9.884;2023-04-10T10:09:50;8.83;;;8.43;;
20040;SDS011;10181;48.072;9.884;2023-04-10T10:12:23;28.03;;;26.83;;
20040;SDS011;10181;48.072;9.884;2023-04-10T10:15:13;24.30;;;23.23;;
20040;SDS011;10181;48.072;9.884;2023-04-10T10:20:21;25.83;;;24.80;;
20040;SDS011;10181;48.072;9.884;2023-04-10T10:22:50;29.67;;;28.43;;
20040;SDS011;10181;48.072;9.884;2023-04-10T10:25:17;14.53;;;13.93;;
20040;SDS011;10181;48.072;9.884;2023-04-10T10:27:45;4.03;;;3.93;;
20040;SDS011;10181;48.072;9.884;2023-04-10T10:30:14;20.67;;;19.83;;
20040;SDS011;10181;48.072;9.884;2023-04-10T10:32:43;5.20;;;4.90;;
20040;SDS011;10181;48.072;9.884;2023-04-10T10:35:10;27.23;;;26.07;;
20040;SDS011;10181;48.072;9.884;2023-04-10T10:37:36;4.23;;;4.03;;
20040;SDS011;10181;48.072;9.884;2023-04-10T10:43:01;4.13;;;3.93;;
20040;SDS011;10181;48.072;9.884;2023-04-10T10:45:57;46.53;;;44.77;;
20040;SDS011;10181;48.072;9.884;2023-04-10T10:48:30;33.67;;;32.37;;
20040;SDS011;10181;48.072;9.884;2023-04-10T10:50:57;19.30;;;18.60;;
20040;SDS011;10181;48.072;9.884;2023-04-10T10:56:31;25.87;;;24.97;;
20040;SDS011;10181;48.072;9.884;2023-04-10T10:58:54;18.03;;;17.43;;
20040;SDS011;10181;48.072;9.884;2023-04-10T11:01:23;3.77;;;3.67;;
20040;SDS011;10181;48.072;9.884;2023-04-10T11:03:50;10.37;;;9.97;;
20040;SDS011;10181;48.072;9.884;2023-04-10T11:06:19;30.00;;;28.93;;
20040;SDS011;10181;48.072;9.884;2023-04-10T11:08:52;8.40;;;8.17;;
20040;SDS011;10181;48.072;9.884;2023-04-10T11:11:18;36.83;;;35.47;;
20040;SDS011;10181;48.072;9.884;2023-04-10T11:16:16;69.47;;;66.80;;
20040;SDS011;10181;48.072;9.884;2023-04-10T11:21:14;8.70;;;8.40;;
20040;SDS011;10181;48.072;9.884;2023-04-10T11:24:02;3.40;;;3.30;;
20040;SDS011;10181;48.072;9.884;2023-04-10T11:31:44;3.77;;;3.67;;
20040;SDS011;10181;48.072;9.884;2023-04-10T11:34:22;16.87;;;16.30;;
20040;SDS011;10181;48.072;9.884;2023-04-10T11:36:48;3.30;;;3.20;;
20040;SDS011;10181;48.072;9.884;2023-04-10T11:39:15;7.77;;;7.47;;
20040;SDS011;10181;48.072;9.884;2023-04-10T11:41:45;39.17;;;37.70;;
20040;SDS011;10181;48.072;9.884;2023-04-10T11:44:15;16.13;;;15.67;;
20040;SDS011;10181;48.072;9.884;2023-04-10T11:46:42;54.83;;;52.60;;
20040;SDS011;10181;48.072;9.884;2023-04-10T11:49:11;55.60;;;53.40;;
20040;SDS011;10181;48.072;9.884;2023-04-10T11:51:43;8.93;;;8.73;;
20040;SDS011;10181;48.072;9.884;2023-04-10T11:54:23;45.83;;;44.10;;
20040;SDS011;10181;48.072;9.884;2023-04-10T11:57:00;9.07;;;8.77;;
20040;SDS011;10181;48.072;9.884;2023-04-10T11:59:26;14.93;;;14.40;;
20040;SDS011;10181;48.072;9.884;2023-04-10T12:01:54;5.43;;;5.23;;
20040;SDS011;10181;48.072;9.884;2023-04-10T12:04:30;7.27;;;7.07;;
20040;SDS011;10181;48.072;9.884;2023-04-10T12:06:56;15.20;;;14.70;;
20040;SDS011;10181;48.072;9.884;2023-04-10T12:09:22;16.10;;;15.60;;
20040;SDS011;10181;48.072;9.884;2023-04-10T12:14:16;10.93;;;10.63;;
20040;SDS011;10181;48.072;9.884;2023-04-10T12:16:43;4.57;;;4.47;;
20040;SDS011;10181;48.072;9.884;2023-04-10T12:19:10;2.03;;;2.03;;
20040;SDS011;10181;48.072;9.884;2023-04-10T12:21:37;2.13;;;2.03;;
20040;SDS011;10181;48.072;9.884;2023-04-10T12:24:05;7.75;;;7.55;;
20040;SDS011;10181;48.072;9.884;2023-04-10T12:26:30;4.75;;;4.65;;
20040;SDS011;10181;48.072;9.884;2023-04-10T12:28:56;6.93;;;6.72;;
20040;SDS011;10181;48.072;9.884;2023-04-10T12:31:26;7.13;;;6.93;;
20040;SDS011;10181;48.072;9.884;2023-04-10T12:33:56;9.27;;;8.98;;
20040;SDS011;10181;48.072;9.884;2023-04-10T12:36:23;7.47;;;7.28;;
20040;SDS011;10181;48.072;9.884;2023-04-10T12:38:53;4.18;;;4.07;;
20040;SDS011;10181;48.072;9.884;2023-04-10T12:41:20;4.65;;;4.55;;
20040;SDS011;10181;48.072;9.884;2023-04-10T12:43:47;7.75;;;7.55;;
20040;SDS011;10181;48.072;9.884;2023-04-10T12:46:24;1.90;;;1.90;;
20040;SDS011;10181;48.072;9.884;2023-04-10T12:48:51;1.42;;;1.42;;
20040;SDS011;10181;48.072;9.884;2023-04-10T12:51:17;7.97;;;7.78;;
20040;SDS011;10181;48.072;9.884;2023-04-10T12:53:43;2.58;;;2.47;;
20040;SDS011;10181;48.072;9.884;2023-04-10T12:56:10;5.68;;;5.57;;
20040;SDS011;10181;48.072;9.884;2023-04-10T12:58:36;3.88;;;3.78;;
20040;SDS011;10181;48.072;9.884;2023-04-10T13:01:06;6.32;;;6.20;;
20040;SDS011;10181;48.072;9.884;2023-04-10T13:03:36;2.60;;;2.55;;
20040;SDS011;10181;48.072;9.884;2023-04-10T13:06:05;2.25;;;2.15;;
20040;SDS011;10181;48.072;9.884;2023-04-10T13:08:33;3.33;;;3.22;;
20040;SDS011;10181;48.072;9.884;2023-04-10T13:10:59;1.48;;;1.48;;
20040;SDS011;10181;48.072;9.884;2023-04-10T13:13:27;2.10;;;2.10;;
20040;SDS011;10181;48.072;9.884;2023-04-10T13:15:56;1.63;;;1.63;;
20040;SDS011;10181;48.072;9.884;2023-04-10T13:18:23;1.55;;;1.55;;
20040;SDS011;10181;48.072;9.884;2023-04-10T13:20:49;2.25;;;2.17;;
20040;SDS011;10181;48.072;9.884;2023-04-10T13:23:14;4.10;;;4.00;;
20040;SDS011;10181;48.072;9.884;2023-04-10T13:25:40;3.47;;;3.38;;
20040;SDS011;10181;48.072;9.884;2023-04-10T13:28:07;3.80;;;3.70;;
20040;SDS011;10181;48.072;9.884;2023-04-10T13:30:35;5.75;;;5.55;;
20040;SDS011;10181;48.072;9.884;2023-04-10T13:33:02;1.80;;;1.80;;
20040;SDS011;10181;48.072;9.884;2023-04-10T13:35:28;5.87;;;5.67;;
20040;SDS011;10181;48.072;9.884;2023-04-10T13:37:54;3.40;;;3.30;;
20040;SDS011;10181;48.072;9.884;2023-04-10T13:40:19;3.50;;;3.40;;
20040;SDS011;10181;48.072;9.884;2023-04-10T13:42:46;4.23;;;4.07;;
20040;SDS011;10181;48.072;9.884;2023-04-10T13:45:12;5.80;;;5.67;;
20040;SDS011;10181;48.072;9.884;2023-04-10T13:47:38;5.90;;;5.80;;
20040;SDS011;10181;48.072;9.884;2023-04-10T13:50:03;2.07;;;2.07;;
20040;SDS011;10181;48.072;9.884;2023-04-10T13:52:29;2.57;;;2.47;;
20040;SDS011;10181;48.072;9.884;2023-04-10T13:54:55;6.27;;;6.07;;
20040;SDS011;10181;48.072;9.884;2023-04-10T13:57:20;5.73;;;5.63;;
20040;SDS011;10181;48.072;9.884;2023-04-10T13:59:46;4.53;;;4.43;;
20040;SDS011;10181;48.072;9.884;2023-04-10T14:02:12;3.70;;;3.50;;
20040;SDS011;10181;48.072;9.884;2023-04-10T14:04:37;5.40;;;5.30;;
20040;SDS011;10181;48.072;9.884;2023-04-10T14:07:03;4.43;;;4.33;;
20040;SDS011;10181;48.072;9.884;2023-04-10T14:09:28;2.70;;;2.60;;
20040;SDS011;10181;48.072;9.884;2023-04-10T14:11:54;6.57;;;6.40;;
20040;SDS011;10181;48.072;9.884;2023-04-10T14:14:20;2.53;;;2.50;;
20040;SDS011;10181;48.072;9.884;2023-04-10T14:16:49;3.40;;;3.30;;
20040;SDS011;10181;48.072;9.884;2023-04-10T14:19:15;2.70;;;2.60;;
20040;SDS011;10181;48.072;9.884;2023-04-10T14:21:41;2.00;;;2.00;;
20040;SDS011;10181;48.072;9.884;2023-04-10T14:24:08;2.60;;;2.50;;
20040;SDS011;10181;48.072;9.884;2023-04-10T14:26:34;4.10;;;4.00;;
20040;SDS011;10181;48.072;9.884;2023-04-10T14:29:00;2.05;;;2.05;;
20040;SDS011;10181;48.072;9.884;2023-04-10T14:31:25;2.13;;;2.13;;
20040;SDS011;10181;48.072;9.884;2023-04-10T14:33:51;2.27;;;2.27;;
20040;SDS011;10181;48.072;9.884;2023-04-10T14:36:16;4.47;;;4.37;;
20040;SDS011;10181;48.072;9.884;2023-04-10T14:38:42;6.70;;;6.50;;
20040;SDS011;10181;48.072;9.884;2023-04-10T14:41:07;5.30;;;5.20;;
20040;SDS011;10181;48.072;9.884;2023-04-10T14:43:33;5.20;;;5.10;;
20040;SDS011;10181;48.072;9.884;2023-04-10T14:45:59;9.33;;;9.13;;
20040;SDS011;10181;48.072;9.884;2023-04-10T14:48:24;9.27;;;9.07;;
20040;SDS011;10181;48.072;9.884;2023-04-10T14:50:50;1.90;;;1.90;;
20040;SDS011;10181;48.072;9.884;2023-04-10T14:53:16;8.83;;;8.63;;
20040;SDS011;10181;48.072;9.884;2023-04-10T14:55:41;10.07;;;9.77;;
20040;SDS011;10181;48.072;9.884;2023-04-10T14:58:07;11.00;;;10.70;;
20040;SDS011;10181;48.072;9.884;2023-04-10T15:00:35;3.27;;;3.17;;
20040;SDS011;10181;48.072;9.884;2023-04-10T15:03:01;8.13;;;7.93;;
20040;SDS011;10181;48.072;9.884;2023-04-10T15:05:26;1.80;;;1.80;;
20040;SDS011;10181;48.072;9.884;2023-04-10T15:07:52;10.97;;;10.67;;
20040;SDS011;10181;48.072;9.884;2023-04-10T15:10:18;10.70;;;10.40;;
20040;SDS011;10181;48.072;9.884;2023-04-10T15:12:44;4.60;;;4.50;;